sensor_id;sensor_type;location;lat;lon;timestamp;pressure;altitude;pressure_sealevel;temperature;humidity
66164;BME280;52962;51.088;3.096;2024-02-23T00:01:59;98628.97;;;25.21;35.26
66164;BME280;52962;51.088;3.096;2024-02-23T00:04:27;98645.44;;;24.92;36.23
66164;BME280;52962;51.088;3.096;2024-02-23T00:06:57;98642.88;;;24.91;35.48
66164;BME280;52962;51.088;3.096;2024-02-23T00:09:25;98641.97;;;25.03;34.94
66164;BME280;52962;51.088;3.096;2024-02-23T00:11:53;98638.09;;;25.07;34.84
66164;BME280;52962;51.088;3.096;2024-02-23T00:14:22;98635.69;;;25.15;34.67
66164;BME280;52962;51.088;3.096;2024-02-23T00:16:51;98630.47;;;26.75;33.18
66164;BME280;52962;51.088;3.096;2024-02-23T00:19:19;98631.81;;;26.69;31.91
66164;BME280;52962;51.088;3.096;2024-02-23T00:21:48;98636.25;;;26.59;30.97
66164;BME280;52962;51.088;3.096;2024-02-23T00:24:17;98626.44;;;26.58;31.29
66164;BME280;52962;51.088;3.096;2024-02-23T00:26:48;98627.28;;;26.69;31.23
66164;BME280;52962;51.088;3.096;2024-02-23T00:29:17;98623.34;;;26.74;30.73
66164;BME280;52962;51.088;3.096;2024-02-23T00:31:45;98632.19;;;26.53;30.35
66164;BME280;52962;51.088;3.096;2024-02-23T00:34:15;98635.88;;;26.52;30.11
66164;BME280;52962;51.088;3.096;2024-02-23T00:36:43;98644.44;;;26.80;30.34
66164;BME280;52962;51.088;3.096;2024-02-23T00:39:12;98652.69;;;26.56;29.49
66164;BME280;52962;51.088;3.096;2024-02-23T00:41:39;98654.53;;;26.55;29.91
66164;BME280;52962;51.088;3.096;2024-02-23T00:44:07;98654.16;;;26.60;30.34
66164;BME280;52962;51.088;3.096;2024-02-23T00:46:35;98654.63;;;26.43;29.54
66164;BME280;52962;51.088;3.096;2024-02-23T00:49:05;98648.13;;;26.56;29.85
66164;BME280;52962;51.088;3.096;2024-02-23T00:51:34;98639.19;;;26.56;29.68
66164;BME280;52962;51.088;3.096;2024-02-23T00:54:03;98653.78;;;26.42;29.74
66164;BME280;52962;51.088;3.096;2024-02-23T00:56:31;98649.63;;;26.71;29.73
66164;BME280;52962;51.088;3.096;2024-02-23T00:59:15;98660.59;;;26.24;30.14
66164;BME280;52962;51.088;3.096;2024-02-23T01:01:43;98659.22;;;26.18;29.84
66164;BME280;52962;51.088;3.096;2024-02-23T01:04:11;98653.34;;;26.24;30.26
66164;BME280;52962;51.088;3.096;2024-02-23T01:06:41;98659.06;;;24.65;31.77
66164;BME280;52962;51.088;3.096;2024-02-23T01:09:09;98650.16;;;25.01;31.02
66164;BME280;52962;51.088;3.096;2024-02-23T01:11:37;98651.44;;;25.80;30.78
66164;BME280;52962;51.088;3.096;2024-02-23T01:14:06;98650.53;;;25.68;30.64
66164;BME280;52962;51.088;3.096;2024-02-23T01:16:34;98661.56;;;25.65;30.90
66164;BME280;52962;51.088;3.096;2024-02-23T01:19:02;98658.44;;;25.59;31.35
66164;BME280;52962;51.088;3.096;2024-02-23T01:21:30;98653.91;;;25.83;30.96
66164;BME280;52962;51.088;3.096;2024-02-23T01:24:00;98649.25;;;25.85;30.97
66164;BME280;52962;51.088;3.096;2024-02-23T01:26:28;98653.50;;;25.77;30.76
66164;BME280;52962;51.088;3.096;2024-02-23T01:28:56;98657.09;;;25.88;31.18
66164;BME280;52962;51.088;3.096;2024-02-23T01:31:25;98658.38;;;25.48;30.94
66164;BME280;52962;51.088;3.096;2024-02-23T01:33:53;98662.41;;;25.42;31.22
66164;BME280;52962;51.088;3.096;2024-02-23T01:36:21;98663.97;;;24.97;31.18
66164;BME280;52962;51.088;3.096;2024-02-23T01:38:49;98662.22;;;25.32;31.49
66164;BME280;52962;51.088;3.096;2024-02-23T01:41:18;98669.44;;;25.56;31.24
66164;BME280;52962;51.088;3.096;2024-02-23T01:43:47;98667.50;;;24.35;32.17
66164;BME280;52962;51.088;3.096;2024-02-23T01:46:17;98667.88;;;23.91;33.09
66164;BME280;52962;51.088;3.096;2024-02-23T01:48:45;98663.13;;;23.69;33.05
66164;BME280;52962;51.088;3.096;2024-02-23T01:51:14;98659.50;;;23.83;33.19
66164;BME280;52962;51.088;3.096;2024-02-23T01:53:42;98652.50;;;24.19;33.20
66164;BME280;52962;51.088;3.096;2024-02-23T01:56:10;98655.41;;;24.03;33.56
66164;BME280;52962;51.088;3.096;2024-02-23T01:58:41;98655.19;;;24.19;33.43
66164;BME280;52962;51.088;3.096;2024-02-23T02:01:09;98654.66;;;24.01;33.70
66164;BME280;52962;51.088;3.096;2024-02-23T02:03:38;98652.22;;;24.36;33.23
66164;BME280;52962;51.088;3.096;2024-02-23T02:06:07;98655.63;;;24.12;33.35
66164;BME280;52962;51.088;3.096;2024-02-23T02:08:36;98646.63;;;24.26;33.40
66164;BME280;52962;51.088;3.096;2024-02-23T02:11:04;98651.09;;;24.13;33.60
66164;BME280;52962;51.088;3.096;2024-02-23T02:13:33;98647.22;;;23.79;33.92
66164;BME280;52962;51.088;3.096;2024-02-23T02:16:02;98657.78;;;23.82;34.55
66164;BME280;52962;51.088;3.096;2024-02-23T02:18:31;98654.75;;;23.99;34.18
66164;BME280;52962;51.088;3.096;2024-02-23T02:20:59;98650.22;;;24.00;34.62
66164;BME280;52962;51.088;3.096;2024-02-23T02:23:27;98654.53;;;24.15;34.82
66164;BME280;52962;51.088;3.096;2024-02-23T02:25:56;98657.66;;;24.22;34.41
66164;BME280;52962;51.088;3.096;2024-02-23T02:28:26;98655.22;;;24.57;34.27
66164;BME280;52962;51.088;3.096;2024-02-23T02:30:54;98654.91;;;24.49;34.34
66164;BME280;52962;51.088;3.096;2024-02-23T02:33:23;98655.94;;;23.95;34.38
66164;BME280;52962;51.088;3.096;2024-02-23T02:35:52;98649.50;;;24.10;34.26
66164;BME280;52962;51.088;3.096;2024-02-23T02:38:20;98652.13;;;23.60;34.38
66164;BME280;52962;51.088;3.096;2024-02-23T02:40:48;98656.69;;;24.10;34.49
66164;BME280;52962;51.088;3.096;2024-02-23T02:43:16;98669.69;;;23.78;34.19
66164;BME280;52962;51.088;3.096;2024-02-23T02:45:44;98676.19;;;23.34;35.28
66164;BME280;52962;51.088;3.096;2024-02-23T02:48:12;98667.00;;;23.78;35.22
66164;BME280;52962;51.088;3.096;2024-02-23T02:50:42;98660.13;;;23.74;35.00
66164;BME280;52962;51.088;3.096;2024-02-23T02:53:11;98658.84;;;24.05;34.56
66164;BME280;52962;51.088;3.096;2024-02-23T02:55:40;98654.75;;;23.99;34.38
66164;BME280;52962;51.088;3.096;2024-02-23T02:58:09;98651.75;;;23.91;34.69
66164;BME280;52962;51.088;3.096;2024-02-23T03:00:37;98650.88;;;24.03;34.67
66164;BME280;52962;51.088;3.096;2024-02-23T03:03:05;98640.56;;;23.97;34.54
66164;BME280;52962;51.088;3.096;2024-02-23T03:05:33;98635.84;;;24.13;34.14
66164;BME280;52962;51.088;3.096;2024-02-23T03:08:03;98636.72;;;24.27;34.18
66164;BME280;52962;51.088;3.096;2024-02-23T03:10:31;98631.53;;;24.24;34.03
66164;BME280;52962;51.088;3.096;2024-02-23T03:12:59;98631.09;;;24.04;34.15
66164;BME280;52962;51.088;3.096;2024-02-23T03:15:27;98621.19;;;25.88;31.78
66164;BME280;52962;51.088;3.096;2024-02-23T03:17:56;98615.06;;;26.08;31.11
66164;BME280;52962;51.088;3.096;2024-02-23T03:20:24;98628.19;;;26.01;31.16
66164;BME280;52962;51.088;3.096;2024-02-23T03:22:52;98620.06;;;25.79;30.97
66164;BME280;52962;51.088;3.096;2024-02-23T03:25:21;98619.56;;;25.74;31.79
66164;BME280;52962;51.088;3.096;2024-02-23T03:27:49;98624.63;;;25.07;31.82
66164;BME280;52962;51.088;3.096;2024-02-23T03:30:17;98615.50;;;25.45;31.62
66164;BME280;52962;51.088;3.096;2024-02-23T03:32:45;98624.44;;;25.21;31.84
66164;BME280;52962;51.088;3.096;2024-02-23T03:35:14;98621.34;;;24.91;31.77
66164;BME280;52962;51.088;3.096;2024-02-23T03:37:42;98622.22;;;25.39;31.38
66164;BME280;52962;51.088;3.096;2024-02-23T03:40:10;98622.09;;;25.64;31.26
66164;BME280;52962;51.088;3.096;2024-02-23T03:42:40;98610.19;;;25.32;31.62
66164;BME280;52962;51.088;3.096;2024-02-23T03:45:08;98601.34;;;25.54;30.95
66164;BME280;52962;51.088;3.096;2024-02-23T03:47:36;98596.13;;;24.55;32.36
66164;BME280;52962;51.088;3.096;2024-02-23T03:50:05;98591.91;;;26.84;29.30
66164;BME280;52962;51.088;3.096;2024-02-23T03:52:34;98594.28;;;25.40;30.67
66164;BME280;52962;51.088;3.096;2024-02-23T03:55:02;98589.59;;;27.01;29.46
66164;BME280;52962;51.088;3.096;2024-02-23T03:57:31;98594.41;;;27.51;28.57
66164;BME280;52962;51.088;3.096;2024-02-23T04:00:00;98587.41;;;26.39;29.52
66164;BME280;52962;51.088;3.096;2024-02-23T04:02:38;98581.84;;;26.97;29.04
66164;BME280;52962;51.088;3.096;2024-02-23T04:05:07;98585.78;;;25.92;30.34
66164;BME280;52962;51.088;3.096;2024-02-23T04:07:35;98593.50;;;26.08;30.28
66164;BME280;52962;51.088;3.096;2024-02-23T04:10:04;98595.69;;;26.03;30.19
66164;BME280;52962;51.088;3.096;2024-02-23T04:12:33;98589.19;;;25.83;30.47
66164;BME280;52962;51.088;3.096;2024-02-23T04:15:02;98579.94;;;26.32;29.89
66164;BME280;52962;51.088;3.096;2024-02-23T04:17:31;98587.34;;;25.72;31.01
66164;BME280;52962;51.088;3.096;2024-02-23T04:20:00;98589.84;;;25.04;31.21
66164;BME280;52962;51.088;3.096;2024-02-23T04:22:30;98587.47;;;25.71;30.60
66164;BME280;52962;51.088;3.096;2024-02-23T04:24:58;98585.78;;;26.15;29.71
66164;BME280;52962;51.088;3.096;2024-02-23T04:27:26;98583.44;;;25.77;30.38
66164;BME280;52962;51.088;3.096;2024-02-23T04:29:54;98583.09;;;24.62;30.62
66164;BME280;52962;51.088;3.096;2024-02-23T04:32:24;98574.66;;;25.62;30.31
66164;BME280;52962;51.088;3.096;2024-02-23T04:34:52;98575.47;;;26.08;29.82
66164;BME280;52962;51.088;3.096;2024-02-23T04:37:20;98573.03;;;26.28;29.94
66164;BME280;52962;51.088;3.096;2024-02-23T04:39:48;98566.34;;;25.30;30.43
66164;BME280;52962;51.088;3.096;2024-02-23T04:42:16;98570.53;;;25.34;30.31
66164;BME280;52962;51.088;3.096;2024-02-23T04:44:44;98566.31;;;26.00;29.96
66164;BME280;52962;51.088;3.096;2024-02-23T04:47:13;98568.25;;;25.87;29.75
66164;BME280;52962;51.088;3.096;2024-02-23T04:49:42;98565.44;;;26.11;30.09
66164;BME280;52962;51.088;3.096;2024-02-23T04:52:10;98555.75;;;24.92;30.70
66164;BME280;52962;51.088;3.096;2024-02-23T04:54:38;98560.91;;;24.95;31.01
66164;BME280;52962;51.088;3.096;2024-02-23T04:57:06;98568.41;;;24.78;31.48
66164;BME280;52962;51.088;3.096;2024-02-23T04:59:34;98570.59;;;24.61;31.71
66164;BME280;52962;51.088;3.096;2024-02-23T05:02:02;98561.78;;;26.34;28.96
66164;BME280;52962;51.088;3.096;2024-02-23T05:04:31;98568.91;;;26.35;29.18
66164;BME280;52962;51.088;3.096;2024-02-23T05:07:01;98566.91;;;26.26;28.78
66164;BME280;52962;51.088;3.096;2024-02-23T05:09:29;98571.06;;;26.30;29.02
66164;BME280;52962;51.088;3.096;2024-02-23T05:11:58;98565.81;;;25.95;29.26
66164;BME280;52962;51.088;3.096;2024-02-23T05:14:28;98559.22;;;26.32;28.87
66164;BME280;52962;51.088;3.096;2024-02-23T05:16:56;98567.75;;;26.26;28.73
66164;BME280;52962;51.088;3.096;2024-02-23T05:19:24;98566.44;;;26.43;28.96
66164;BME280;52962;51.088;3.096;2024-02-23T05:21:52;98565.53;;;25.76;29.23
66164;BME280;52962;51.088;3.096;2024-02-23T05:24:22;98563.13;;;25.95;29.17
66164;BME280;52962;51.088;3.096;2024-02-23T05:26:50;98543.72;;;25.79;29.69
66164;BME280;52962;51.088;3.096;2024-02-23T05:29:18;98542.88;;;26.12;29.44
66164;BME280;52962;51.088;3.096;2024-02-23T05:31:52;98526.72;;;26.45;28.90
66164;BME280;52962;51.088;3.096;2024-02-23T05:34:20;98538.69;;;26.30;28.84
66164;BME280;52962;51.088;3.096;2024-02-23T05:36:49;98526.09;;;26.53;29.10
66164;BME280;52962;51.088;3.096;2024-02-23T05:39:17;98520.69;;;26.30;28.98
66164;BME280;52962;51.088;3.096;2024-02-23T05:41:47;98521.53;;;26.20;29.26
66164;BME280;52962;51.088;3.096;2024-02-23T05:44:15;98512.47;;;25.65;29.04
66164;BME280;52962;51.088;3.096;2024-02-23T05:46:43;98509.16;;;26.28;29.14
66164;BME280;52962;51.088;3.096;2024-02-23T05:49:12;98503.63;;;26.19;29.03
66164;BME280;52962;51.088;3.096;2024-02-23T05:51:40;98513.75;;;24.65;30.57
66164;BME280;52962;51.088;3.096;2024-02-23T05:54:08;98512.38;;;24.60;31.02
66164;BME280;52962;51.088;3.096;2024-02-23T05:56:36;98512.00;;;25.93;29.82
66164;BME280;52962;51.088;3.096;2024-02-23T05:59:06;98505.59;;;26.17;28.92
66164;BME280;52962;51.088;3.096;2024-02-23T06:01:34;98498.03;;;25.77;28.88
66164;BME280;52962;51.088;3.096;2024-02-23T06:04:03;98502.72;;;25.51;29.54
66164;BME280;52962;51.088;3.096;2024-02-23T06:06:32;98509.59;;;25.55;29.77
66164;BME280;52962;51.088;3.096;2024-02-23T06:09:00;98507.66;;;25.22;30.07
66164;BME280;52962;51.088;3.096;2024-02-23T06:11:29;98502.94;;;25.83;29.54
66164;BME280;52962;51.088;3.096;2024-02-23T06:13:57;98511.03;;;25.94;29.38
66164;BME280;52962;51.088;3.096;2024-02-23T06:16:27;98510.41;;;25.80;29.20
66164;BME280;52962;51.088;3.096;2024-02-23T06:18:55;98516.41;;;25.72;29.81
66164;BME280;52962;51.088;3.096;2024-02-23T06:21:23;98515.19;;;25.87;29.75
66164;BME280;52962;51.088;3.096;2024-02-23T06:23:53;98515.69;;;25.81;29.87
66164;BME280;52962;51.088;3.096;2024-02-23T06:26:21;98525.41;;;25.60;29.82
66164;BME280;52962;51.088;3.096;2024-02-23T06:28:49;98525.72;;;25.90;29.46
66164;BME280;52962;51.088;3.096;2024-02-23T06:31:17;98528.16;;;25.71;30.25
66164;BME280;52962;51.088;3.096;2024-02-23T06:33:47;98535.16;;;26.07;30.38
66164;BME280;52962;51.088;3.096;2024-02-23T06:36:16;98527.25;;;25.59;31.08
66164;BME280;52962;51.088;3.096;2024-02-23T06:38:45;98518.34;;;25.00;31.68
66164;BME280;52962;51.088;3.096;2024-02-23T06:41:13;98519.84;;;25.39;31.97
66164;BME280;52962;51.088;3.096;2024-02-23T06:43:41;98524.88;;;24.85;32.49
66164;BME280;52962;51.088;3.096;2024-02-23T06:46:09;98528.38;;;24.74;32.54
66164;BME280;52962;51.088;3.096;2024-02-23T06:48:37;98532.03;;;24.36;33.06
66164;BME280;52962;51.088;3.096;2024-02-23T06:51:07;98530.84;;;24.40;32.92
66164;BME280;52962;51.088;3.096;2024-02-23T06:53:37;98526.47;;;24.63;32.99
66164;BME280;52962;51.088;3.096;2024-02-23T06:56:05;98526.91;;;24.57;33.23
66164;BME280;52962;51.088;3.096;2024-02-23T06:58:34;98530.19;;;24.24;33.38
66164;BME280;52962;51.088;3.096;2024-02-23T07:01:02;98522.38;;;24.34;33.56
66164;BME280;52962;51.088;3.096;2024-02-23T07:03:32;98522.91;;;24.13;34.06
66164;BME280;52962;51.088;3.096;2024-02-23T07:06:02;98528.47;;;24.23;33.94
66164;BME280;52962;51.088;3.096;2024-02-23T07:08:33;98526.28;;;24.54;33.63
66164;BME280;52962;51.088;3.096;2024-02-23T07:11:01;98508.66;;;24.50;33.54
66164;BME280;52962;51.088;3.096;2024-02-23T07:13:30;98512.50;;;24.58;33.64
66164;BME280;52962;51.088;3.096;2024-02-23T07:16:00;98517.84;;;24.22;33.63
66164;BME280;52962;51.088;3.096;2024-02-23T07:18:28;98517.28;;;24.42;33.72
66164;BME280;52962;51.088;3.096;2024-02-23T07:20:56;98512.63;;;24.81;33.51
66164;BME280;52962;51.088;3.096;2024-02-23T07:23:25;98525.78;;;24.72;33.52
66164;BME280;52962;51.088;3.096;2024-02-23T07:25:54;98521.03;;;24.52;33.77
66164;BME280;52962;51.088;3.096;2024-02-23T07:28:22;98520.81;;;24.79;33.49
66164;BME280;52962;51.088;3.096;2024-02-23T07:30:50;98523.13;;;24.10;33.22
66164;BME280;52962;51.088;3.096;2024-02-23T07:33:19;98527.63;;;24.35;34.15
66164;BME280;52962;51.088;3.096;2024-02-23T07:35:48;98533.88;;;24.36;33.89
66164;BME280;52962;51.088;3.096;2024-02-23T07:38:16;98529.56;;;24.33;33.72
66164;BME280;52962;51.088;3.096;2024-02-23T07:40:45;98537.31;;;24.38;33.81
66164;BME280;52962;51.088;3.096;2024-02-23T07:43:14;98538.16;;;24.38;33.81
66164;BME280;52962;51.088;3.096;2024-02-23T07:45:42;98540.25;;;24.59;33.49
66164;BME280;52962;51.088;3.096;2024-02-23T07:48:10;98554.63;;;24.34;33.82
66164;BME280;52962;51.088;3.096;2024-02-23T07:50:38;98538.38;;;24.23;33.93
66164;BME280;52962;51.088;3.096;2024-02-23T07:53:07;98547.53;;;24.69;33.49
66164;BME280;52962;51.088;3.096;2024-02-23T07:55:35;98550.09;;;24.84;32.83
66164;BME280;52962;51.088;3.096;2024-02-23T07:58:03;98545.09;;;25.14;33.04
66164;BME280;52962;51.088;3.096;2024-02-23T08:00:33;98545.44;;;25.09;32.74
66164;BME280;52962;51.088;3.096;2024-02-23T08:03:05;98561.31;;;25.01;32.79
66164;BME280;52962;51.088;3.096;2024-02-23T08:05:34;98556.25;;;25.21;32.79
66164;BME280;52962;51.088;3.096;2024-02-23T08:08:02;98551.56;;;24.88;33.21
66164;BME280;52962;51.088;3.096;2024-02-23T08:10:30;98555.47;;;25.07;32.97
66164;BME280;52962;51.088;3.096;2024-02-23T08:12:59;98559.34;;;24.80;33.07
66164;BME280;52962;51.088;3.096;2024-02-23T08:15:27;98552.53;;;24.87;32.89
66164;BME280;52962;51.088;3.096;2024-02-23T08:17:57;98555.59;;;24.45;33.04
66164;BME280;52962;51.088;3.096;2024-02-23T08:20:25;98564.59;;;24.57;33.36
66164;BME280;52962;51.088;3.096;2024-02-23T08:22:53;98563.34;;;24.25;33.54
66164;BME280;52962;51.088;3.096;2024-02-23T08:25:21;98556.88;;;24.40;33.30
66164;BME280;52962;51.088;3.096;2024-02-23T08:27:49;98547.09;;;24.75;33.12
66164;BME280;52962;51.088;3.096;2024-02-23T08:30:18;98561.97;;;24.68;32.76
66164;BME280;52962;51.088;3.096;2024-02-23T08:32:47;98569.03;;;25.06;32.26
66164;BME280;52962;51.088;3.096;2024-02-23T08:35:16;98574.50;;;25.52;31.87
66164;BME280;52962;51.088;3.096;2024-02-23T08:37:45;98579.19;;;25.61;32.02
66164;BME280;52962;51.088;3.096;2024-02-23T08:40:13;98579.84;;;25.41;32.17
66164;BME280;52962;51.088;3.096;2024-02-23T08:42:42;98584.31;;;25.99;31.41
66164;BME280;52962;51.088;3.096;2024-02-23T08:45:10;98580.00;;;25.74;31.79
66164;BME280;52962;51.088;3.096;2024-02-23T08:47:39;98587.00;;;25.88;31.33
66164;BME280;52962;51.088;3.096;2024-02-23T08:50:08;98584.78;;;25.82;31.63
66164;BME280;52962;51.088;3.096;2024-02-23T08:52:38;98574.56;;;25.39;31.54
66164;BME280;52962;51.088;3.096;2024-02-23T08:55:07;98588.97;;;25.86;31.29
66164;BME280;52962;51.088;3.096;2024-02-23T08:57:35;98591.53;;;25.53;31.45
66164;BME280;52962;51.088;3.096;2024-02-23T09:00:04;98589.94;;;25.26;31.32
66164;BME280;52962;51.088;3.096;2024-02-23T09:02:33;98592.25;;;26.01;31.19
66164;BME280;52962;51.088;3.096;2024-02-23T09:05:03;98597.84;;;26.55;30.82
66164;BME280;52962;51.088;3.096;2024-02-23T09:07:31;98590.91;;;26.06;30.72
66164;BME280;52962;51.088;3.096;2024-02-23T09:10:01;98588.94;;;25.75;30.77
66164;BME280;52962;51.088;3.096;2024-02-23T09:12:31;98595.34;;;25.85;30.99
66164;BME280;52962;51.088;3.096;2024-02-23T09:14:59;98590.53;;;25.78;30.87
66164;BME280;52962;51.088;3.096;2024-02-23T09:17:27;98595.81;;;25.55;31.33
66164;BME280;52962;51.088;3.096;2024-02-23T09:19:55;98600.00;;;25.94;31.11
66164;BME280;52962;51.088;3.096;2024-02-23T09:22:23;98594.53;;;25.37;31.12
66164;BME280;52962;51.088;3.096;2024-02-23T09:24:51;98593.44;;;25.16;31.32
66164;BME280;52962;51.088;3.096;2024-02-23T09:27:21;98600.72;;;24.66;31.89
66164;BME280;52962;51.088;3.096;2024-02-23T09:29:50;98594.47;;;25.26;31.39
66164;BME280;52962;51.088;3.096;2024-02-23T09:32:18;98601.59;;;25.62;31.32
66164;BME280;52962;51.088;3.096;2024-02-23T09:34:45;98602.66;;;25.72;31.23
66164;BME280;52962;51.088;3.096;2024-02-23T09:37:14;98599.16;;;25.94;30.87
66164;BME280;52962;51.088;3.096;2024-02-23T09:39:42;98605.41;;;25.59;31.17
66164;BME280;52962;51.088;3.096;2024-02-23T09:42:11;98614.47;;;26.04;31.04
66164;BME280;52962;51.088;3.096;2024-02-23T09:44:41;98621.34;;;26.31;30.71
66164;BME280;52962;51.088;3.096;2024-02-23T09:47:12;98626.72;;;26.08;30.78
66164;BME280;52962;51.088;3.096;2024-02-23T09:49:41;98637.88;;;25.93;31.19
66164;BME280;52962;51.088;3.096;2024-02-23T09:52:10;98637.03;;;25.92;31.30
66164;BME280;52962;51.088;3.096;2024-02-23T09:54:38;98650.09;;;26.43;30.34
66164;BME280;52962;51.088;3.096;2024-02-23T09:57:08;98645.19;;;26.37;31.08
66164;BME280;52962;51.088;3.096;2024-02-23T09:59:37;98651.44;;;25.56;31.71
66164;BME280;52962;51.088;3.096;2024-02-23T10:02:08;98649.41;;;25.95;31.30
66164;BME280;52962;51.088;3.096;2024-02-23T10:04:38;98653.81;;;26.07;31.68
66164;BME280;52962;51.088;3.096;2024-02-23T10:07:07;98659.91;;;26.66;30.88
66164;BME280;52962;51.088;3.096;2024-02-23T10:09:36;98662.13;;;26.50;30.63
66164;BME280;52962;51.088;3.096;2024-02-23T10:12:05;98678.56;;;26.69;30.87
66164;BME280;52962;51.088;3.096;2024-02-23T10:14:34;98673.75;;;27.07;30.45
66164;BME280;52962;51.088;3.096;2024-02-23T10:17:02;98669.94;;;27.09;29.84
66164;BME280;52962;51.088;3.096;2024-02-23T10:19:33;98672.81;;;26.96;29.42
66164;BME280;52962;51.088;3.096;2024-02-23T10:22:02;98680.50;;;26.34;29.96
66164;BME280;52962;51.088;3.096;2024-02-23T10:24:30;98693.25;;;26.32;30.00
66164;BME280;52962;51.088;3.096;2024-02-23T10:27:00;98686.66;;;26.58;29.68
66164;BME280;52962;51.088;3.096;2024-02-23T10:29:28;98698.44;;;27.13;29.79
66164;BME280;52962;51.088;3.096;2024-02-23T10:31:57;98702.06;;;27.34;29.67
66164;BME280;52962;51.088;3.096;2024-02-23T10:34:27;98697.72;;;26.55;29.71
66164;BME280;52962;51.088;3.096;2024-02-23T10:36:59;98711.06;;;27.24;28.88
66164;BME280;52962;51.088;3.096;2024-02-23T10:39:29;98715.38;;;26.93;29.52
66164;BME280;52962;51.088;3.096;2024-02-23T10:41:58;98721.97;;;26.44;29.33
66164;BME280;52962;51.088;3.096;2024-02-23T10:44:28;98718.56;;;27.20;29.30
66164;BME280;52962;51.088;3.096;2024-02-23T10:46:58;98717.97;;;26.72;29.22
66164;BME280;52962;51.088;3.096;2024-02-23T10:49:27;98718.19;;;27.14;29.27
66164;BME280;52962;51.088;3.096;2024-02-23T10:51:56;98728.97;;;27.36;28.99
66164;BME280;52962;51.088;3.096;2024-02-23T10:54:26;98727.25;;;27.35;28.63
66164;BME280;52962;51.088;3.096;2024-02-23T10:56:54;98723.22;;;27.29;28.31
66164;BME280;52962;51.088;3.096;2024-02-23T10:59:23;98736.47;;;27.32;28.51
66164;BME280;52962;51.088;3.096;2024-02-23T11:01:52;98739.78;;;27.36;28.19
66164;BME280;52962;51.088;3.096;2024-02-23T11:04:24;98726.41;;;27.34;28.93
66164;BME280;52962;51.088;3.096;2024-02-23T11:06:54;98730.81;;;27.35;28.17
66164;BME280;52962;51.088;3.096;2024-02-23T11:09:27;98718.41;;;27.87;28.04
66164;BME280;52962;51.088;3.096;2024-02-23T11:11:57;98718.22;;;28.00;28.29
66164;BME280;52962;51.088;3.096;2024-02-23T11:14:30;98715.31;;;27.92;27.49
66164;BME280;52962;51.088;3.096;2024-02-23T11:16:59;98717.16;;;27.48;28.41
66164;BME280;52962;51.088;3.096;2024-02-23T11:19:35;98714.56;;;27.69;28.73
66164;BME280;52962;51.088;3.096;2024-02-23T11:22:04;98736.13;;;27.15;28.59
66164;BME280;52962;51.088;3.096;2024-02-23T11:24:44;98735.19;;;27.70;28.32
66164;BME280;52962;51.088;3.096;2024-02-23T11:27:14;98733.47;;;27.58;28.59
66164;BME280;52962;51.088;3.096;2024-02-23T11:29:45;98744.34;;;27.35;28.87
66164;BME280;52962;51.088;3.096;2024-02-23T11:32:14;98742.88;;;26.64;28.89
66164;BME280;52962;51.088;3.096;2024-02-23T11:34:54;98743.25;;;27.16;28.62
66164;BME280;52962;51.088;3.096;2024-02-23T11:37:23;98746.31;;;26.66;28.99
66164;BME280;52962;51.088;3.096;2024-02-23T11:39:57;98746.44;;;27.21;28.82
66164;BME280;52962;51.088;3.096;2024-02-23T11:42:26;98750.47;;;27.26;28.82
66164;BME280;52962;51.088;3.096;2024-02-23T11:44:55;98753.91;;;26.61;29.36
66164;BME280;52962;51.088;3.096;2024-02-23T11:47:25;98742.25;;;26.61;29.32
66164;BME280;52962;51.088;3.096;2024-02-23T11:49:53;98742.16;;;27.18;28.63
66164;BME280;52962;51.088;3.096;2024-02-23T11:52:22;98741.84;;;27.66;28.96
66164;BME280;52962;51.088;3.096;2024-02-23T11:54:51;98741.00;;;27.97;29.36
66164;BME280;52962;51.088;3.096;2024-02-23T11:57:20;98738.16;;;27.56;28.58
66164;BME280;52962;51.088;3.096;2024-02-23T11:59:51;98733.00;;;27.64;29.03
66164;BME280;52962;51.088;3.096;2024-02-23T12:02:19;98740.78;;;27.24;29.44
66164;BME280;52962;51.088;3.096;2024-02-23T12:04:47;98741.91;;;27.21;29.71
66164;BME280;52962;51.088;3.096;2024-02-23T12:07:16;98745.94;;;27.38;29.33
66164;BME280;52962;51.088;3.096;2024-02-23T12:09:44;98733.88;;;27.96;28.75
66164;BME280;52962;51.088;3.096;2024-02-23T12:12:12;98746.66;;;27.94;28.19
66164;BME280;52962;51.088;3.096;2024-02-23T12:14:42;98736.94;;;27.49;28.75
66164;BME280;52962;51.088;3.096;2024-02-23T12:17:10;98730.56;;;28.14;28.38
66164;BME280;52962;51.088;3.096;2024-02-23T12:19:38;98742.25;;;27.93;29.05
66164;BME280;52962;51.088;3.096;2024-02-23T12:22:07;98732.16;;;28.16;29.01
66164;BME280;52962;51.088;3.096;2024-02-23T12:24:35;98726.56;;;28.50;28.85
66164;BME280;52962;51.088;3.096;2024-02-23T12:27:04;98732.66;;;27.89;29.37
66164;BME280;52962;51.088;3.096;2024-02-23T12:29:32;98728.84;;;28.13;28.35
66164;BME280;52962;51.088;3.096;2024-02-23T12:32:06;98728.56;;;28.48;28.55
66164;BME280;52962;51.088;3.096;2024-02-23T12:34:34;98720.59;;;28.14;28.98
66164;BME280;52962;51.088;3.096;2024-02-23T12:37:03;98715.09;;;28.37;29.11
66164;BME280;52962;51.088;3.096;2024-02-23T12:39:32;98717.66;;;28.38;29.07
66164;BME280;52962;51.088;3.096;2024-02-23T12:42:00;98711.09;;;28.61;29.60
66164;BME280;52962;51.088;3.096;2024-02-23T12:44:28;98709.47;;;28.49;28.83
66164;BME280;52962;51.088;3.096;2024-02-23T12:46:56;98707.13;;;28.65;28.92
66164;BME280;52962;51.088;3.096;2024-02-23T12:49:25;98711.41;;;28.89;28.79
66164;BME280;52962;51.088;3.096;2024-02-23T12:51:54;98710.69;;;28.87;28.76
66164;BME280;52962;51.088;3.096;2024-02-23T12:54:22;98710.75;;;28.13;29.29
66164;BME280;52962;51.088;3.096;2024-02-23T12:56:50;98707.03;;;28.25;29.56
66164;BME280;52962;51.088;3.096;2024-02-23T12:59:18;98708.66;;;27.96;29.79
66164;BME280;52962;51.088;3.096;2024-02-23T13:01:46;98713.09;;;27.97;29.88
66164;BME280;52962;51.088;3.096;2024-02-23T13:04:19;98717.91;;;28.35;30.03
66164;BME280;52962;51.088;3.096;2024-02-23T13:06:48;98714.03;;;27.75;29.34
66164;BME280;52962;51.088;3.096;2024-02-23T13:09:16;98715.66;;;27.98;29.76